Time;durP1;ratioP1;P1;durP2;ratioP2;P2;SDS_P1;SDS_P2;PMS_P1;PMS_P2;Temp;Humidity;BMP_temperature;BMP_pressure;BME280_temperature;BME280_humidity;BME280_pressure;Samples;Min_cycle;Max_cycle;Signal;HPM_P1;HPM_P2
2024/04/20 00:00:57;;;;;;;2.30;1.10;;;3.20;99.90;;;;;;5344906;26;20005;-67
2024/04/20 00:03:29;;;;;;;1.23;1.05;;;3.20;99.90;;;;;;5353767;26;20036;-68
2024/04/20 00:05:56;;;;;;;1.50;0.95;;;3.20;99.90;;;;;;5349286;26;20015;-67
2024/04/20 00:08:23;;;;;;;1.85;1.52;;;3.20;99.90;;;;;;5345329;26;20009;-68
2024/04/20 00:10:55;;;;;;;1.65;1.00;;;3.20;99.90;;;;;;5343486;26;20019;-69
2024/04/20 00:13:22;;;;;;;3.33;1.10;;;3.20;99.90;;;;;;5344302;26;20033;-69
2024/04/20 00:15:49;;;;;;;3.00;1.33;;;3.20;99.90;;;;;;5343463;26;20034;-69
2024/04/20 00:18:16;;;;;;;1.50;1.02;;;3.20;99.90;;;;;;5344635;26;20041;-68
2024/04/20 00:20:43;;;;;;;1.80;0.75;;;3.20;99.90;;;;;;5342009;26;20015;-68
2024/04/20 00:23:10;;;;;;;2.03;0.80;;;3.30;99.90;;;;;;5345113;26;20020;-68
2024/04/20 00:25:38;;;;;;;2.13;1.30;;;3.30;99.90;;;;;;5341131;26;20465;-68
2024/04/20 00:28:05;;;;;;;4.80;1.10;;;3.30;99.90;;;;;;5337466;26;20005;-68
2024/04/20 00:30:32;;;;;;;1.92;1.08;;;3.30;99.90;;;;;;5333208;26;20005;-68
2024/04/20 00:33:00;;;;;;;2.15;0.85;;;3.30;99.90;;;;;;5341161;26;20001;-68
2024/04/20 00:35:27;;;;;;;1.83;1.10;;;3.30;99.90;;;;;;5343755;26;20695;-68
2024/04/20 00:37:53;;;;;;;3.70;1.20;;;3.20;99.90;;;;;;5343208;26;20001;-68
2024/04/20 00:40:20;;;;;;;2.13;1.20;;;3.20;99.90;;;;;;5340310;26;20005;-68
2024/04/20 00:42:47;;;;;;;3.45;1.48;;;3.20;99.90;;;;;;5343129;26;20457;-68
2024/04/20 00:45:14;;;;;;;1.85;1.13;;;3.20;99.90;;;;;;5342796;26;20079;-68
2024/04/20 00:47:41;;;;;;;4.22;1.40;;;3.20;99.90;;;;;;5337926;26;20546;-68
2024/04/20 00:50:08;;;;;;;1.88;1.05;;;3.20;99.90;;;;;;5342252;26;20054;-68
2024/04/20 00:52:36;;;;;;;3.05;1.58;;;3.20;99.90;;;;;;5344340;26;20032;-68
2024/04/20 00:55:04;;;;;;;2.67;1.20;;;3.20;99.90;;;;;;5344304;26;20017;-68
2024/04/20 00:57:32;;;;;;;3.08;1.35;;;3.20;99.90;;;;;;5344424;26;20001;-68
2024/04/20 00:59:59;;;;;;;1.95;1.35;;;3.20;99.90;;;;;;5344021;26;20008;-68
2024/04/20 01:02:28;;;;;;;2.65;1.33;;;3.20;99.90;;;;;;5343305;26;20446;-68
2024/04/20 01:04:55;;;;;;;2.15;1.13;;;3.20;99.90;;;;;;5343831;26;20027;-68
2024/04/20 01:07:22;;;;;;;7.97;2.95;;;3.20;99.90;;;;;;5343575;26;20472;-69
2024/04/20 01:09:49;;;;;;;3.78;1.35;;;3.20;99.90;;;;;;5343518;26;20004;-68
2024/04/20 01:12:17;;;;;;;4.60;1.45;;;3.20;99.90;;;;;;5343305;26;20000;-68
2024/04/20 01:14:44;;;;;;;2.42;1.52;;;3.20;99.90;;;;;;5343854;26;20001;-68
2024/04/20 01:17:11;;;;;;;3.35;1.55;;;3.20;99.90;;;;;;5343117;26;20000;-69
2024/04/20 01:19:38;;;;;;;6.35;2.80;;;3.10;99.90;;;;;;5312757;26;20346;-68
2024/04/20 01:22:05;;;;;;;4.63;1.60;;;3.10;99.90;;;;;;5343198;26;20005;-68
2024/04/20 01:24:33;;;;;;;4.70;1.65;;;3.10;99.90;;;;;;5341744;26;20019;-68
2024/04/20 01:27:04;;;;;;;1.63;1.45;;;3.10;99.90;;;;;;5343249;26;20029;-69
2024/04/20 01:29:31;;;;;;;2.90;1.70;;;3.20;99.90;;;;;;5343318;26;20417;-68
2024/04/20 01:31:58;;;;;;;3.53;1.88;;;3.20;99.90;;;;;;5341322;26;20019;-68
2024/04/20 01:34:27;;;;;;;3.63;1.50;;;3.10;99.90;;;;;;5343880;26;20020;-68
2024/04/20 01:36:53;;;;;;;3.38;1.60;;;3.10;99.90;;;;;;5343955;26;20551;-68
2024/04/20 01:39:21;;;;;;;4.38;1.77;;;3.10;99.90;;;;;;5343490;26;20016;-68
2024/04/20 01:41:51;;;;;;;2.83;1.80;;;3.10;99.90;;;;;;5343520;26;20427;-69
2024/04/20 01:44:18;;;;;;;4.97;1.77;;;3.10;99.90;;;;;;5343879;26;20357;-68
2024/04/20 01:46:45;;;;;;;2.95;1.75;;;3.10;99.90;;;;;;5342057;26;20497;-69
2024/04/20 01:49:12;;;;;;;5.07;1.80;;;3.10;99.90;;;;;;5343641;26;20001;-69
2024/04/20 01:51:38;;;;;;;5.80;1.63;;;3.10;99.90;;;;;;5341751;26;20024;-69
2024/04/20 01:54:06;;;;;;;4.50;2.10;;;3.20;99.90;;;;;;5343486;26;20041;-68
2024/04/20 01:56:33;;;;;;;8.13;1.90;;;3.20;99.90;;;;;;5343806;26;20027;-69
2024/04/20 01:59:00;;;;;;;3.38;1.88;;;3.20;99.90;;;;;;5344878;26;19997;-69
2024/04/20 02:01:30;;;;;;;3.50;1.70;;;3.20;99.90;;;;;;5346236;26;20731;-69
2024/04/20 02:03:57;;;;;;;3.63;1.80;;;3.10;99.90;;;;;;5346720;26;20001;-68
2024/04/20 02:06:24;;;;;;;5.78;3.05;;;3.20;99.90;;;;;;5344988;26;20060;-67
2024/04/20 02:08:51;;;;;;;5.32;2.58;;;3.30;99.90;;;;;;5346566;26;20020;-67
2024/04/20 02:11:23;;;;;;;6.97;2.03;;;3.20;99.90;;;;;;5344123;26;20014;-67
2024/04/20 02:13:50;;;;;;;1.75;1.30;;;3.10;99.90;;;;;;5346535;26;20009;-67
2024/04/20 02:16:17;;;;;;;3.70;1.30;;;3.00;99.90;;;;;;5343746;26;20480;-67
2024/04/20 02:18:44;;;;;;;3.10;1.80;;;2.90;99.90;;;;;;5342097;26;20040;-67
2024/04/20 02:21:18;;;;;;;2.53;1.70;;;2.90;99.90;;;;;;5346049;26;20019;-67
2024/04/20 02:23:50;;;;;;;4.57;1.70;;;2.80;99.90;;;;;;5342568;26;20037;-67
2024/04/20 02:26:17;;;;;;;5.57;1.77;;;2.70;99.90;;;;;;5346453;26;20462;-67
2024/04/20 02:28:49;;;;;;;2.65;1.63;;;2.70;99.90;;;;;;5336778;26;19998;-68
2024/04/20 02:31:16;;;;;;;3.08;1.80;;;2.70;99.90;;;;;;5344483;26;20045;-68
2024/04/20 02:33:43;;;;;;;5.22;2.72;;;2.60;99.90;;;;;;5346278;26;20011;-68
2024/04/20 02:36:10;;;;;;;5.07;1.90;;;2.60;99.90;;;;;;5346265;26;20044;-68
2024/04/20 02:38:37;;;;;;;2.38;2.00;;;2.60;99.90;;;;;;5345295;26;20015;-68
2024/04/20 02:41:10;;;;;;;5.10;2.20;;;2.60;99.90;;;;;;5343027;26;20012;-68
2024/04/20 02:43:42;;;;;;;5.10;2.83;;;2.60;99.90;;;;;;5340387;26;20387;-68
2024/04/20 02:46:08;;;;;;;3.85;2.35;;;2.60;99.90;;;;;;5344310;26;20016;-68
2024/04/20 02:48:40;;;;;;;4.35;2.40;;;2.60;99.90;;;;;;5339358;26;20012;-68
2024/04/20 02:51:12;;;;;;;5.22;2.90;;;2.60;99.90;;;;;;5340585;26;20017;-68
2024/04/20 02:53:39;;;;;;;6.90;2.83;;;2.60;99.90;;;;;;5337192;26;20016;-68
2024/04/20 02:56:06;;;;;;;5.00;2.40;;;2.60;99.90;;;;;;5341555;26;20021;-68
2024/04/20 02:58:33;;;;;;;3.72;2.60;;;2.60;99.90;;;;;;5344392;26;20004;-68
2024/04/20 03:01:01;;;;;;;5.68;2.60;;;2.60;99.90;;;;;;5342701;26;20013;-68
2024/04/20 03:03:30;;;;;;;3.78;2.10;;;2.60;99.90;;;;;;5344838;26;20471;-68
2024/04/20 03:05:57;;;;;;;2.65;1.90;;;2.70;99.90;;;;;;5343370;26;20086;-68
2024/04/20 03:08:24;;;;;;;3.08;2.10;;;2.70;99.90;;;;;;5340781;26;20009;-68
2024/04/20 03:10:51;;;;;;;3.83;1.92;;;2.70;99.90;;;;;;5342257;26;20476;-67
2024/04/20 03:13:18;;;;;;;3.72;2.00;;;2.80;99.90;;;;;;5340858;26;20461;-68
2024/04/20 03:15:45;;;;;;;6.00;2.55;;;2.80;99.90;;;;;;5344063;26;20005;-68
2024/04/20 03:18:12;;;;;;;3.60;2.15;;;2.80;99.90;;;;;;5341974;26;20001;-68
2024/04/20 03:20:39;;;;;;;3.50;2.20;;;2.90;99.90;;;;;;5343163;26;20019;-68
2024/04/20 03:23:06;;;;;;;4.03;2.20;;;2.90;99.90;;;;;;5343339;26;20077;-68
2024/04/20 03:25:37;;;;;;;5.03;2.47;;;2.90;99.90;;;;;;5342979;26;20009;-68
2024/04/20 03:28:05;;;;;;;4.75;2.20;;;2.90;99.90;;;;;;5341678;26;20005;-68
2024/04/20 03:30:32;;;;;;;5.20;2.35;;;2.90;99.90;;;;;;5342918;26;20033;-68
2024/04/20 03:32:58;;;;;;;5.20;2.67;;;3.00;99.90;;;;;;5341749;26;20070;-68
2024/04/20 03:35:25;;;;;;;3.63;2.67;;;3.00;99.90;;;;;;5343397;26;20032;-67
2024/04/20 03:37:52;;;;;;;4.10;2.05;;;3.00;99.90;;;;;;5342262;26;20009;-68
2024/04/20 03:40:19;;;;;;;3.72;2.30;;;3.00;99.90;;;;;;5339819;26;20024;-68
2024/04/20 03:42:46;;;;;;;3.50;2.72;;;3.10;99.90;;;;;;5340202;26;20083;-68
2024/04/20 03:45:13;;;;;;;3.97;2.42;;;3.10;99.90;;;;;;5342102;26;20008;-68
2024/04/20 03:47:45;;;;;;;5.88;2.60;;;3.10;99.90;;;;;;5334978;26;20485;-67
2024/04/20 03:50:12;;;;;;;4.93;2.40;;;3.20;99.90;;;;;;5341520;26;20013;-68
2024/04/20 03:52:39;;;;;;;2.55;2.15;;;3.20;99.90;;;;;;5342417;26;20012;-68
2024/04/20 03:55:06;;;;;;;3.65;2.63;;;3.10;99.90;;;;;;5340115;26;20075;-68
2024/04/20 03:57:33;;;;;;;4.55;2.47;;;3.20;99.90;;;;;;5341594;26;20075;-68
2024/04/20 04:00:00;;;;;;;5.18;2.75;;;3.10;99.90;;;;;;5341993;26;20005;-68
2024/04/20 04:02:29;;;;;;;6.03;2.70;;;3.10;99.90;;;;;;5343474;26;20045;-68
2024/04/20 04:05:01;;;;;;;7.35;2.83;;;3.10;99.90;;;;;;5341567;26;20020;-68
2024/04/20 04:07:28;;;;;;;4.43;2.22;;;3.20;99.90;;;;;;5314650;26;20000;-67
2024/04/20 04:09:55;;;;;;;6.07;2.75;;;3.20;99.90;;;;;;5341422;26;20391;-68
2024/04/20 04:12:22;;;;;;;4.25;2.22;;;3.20;99.90;;;;;;5341382;26;20016;-68
2024/04/20 04:14:49;;;;;;;5.55;3.15;;;3.20;99.90;;;;;;5343325;26;20005;-68
2024/04/20 04:17:16;;;;;;;4.22;2.70;;;3.30;99.90;;;;;;5344699;26;20001;-68
2024/04/20 04:19:43;;;;;;;3.42;2.30;;;3.30;99.90;;;;;;5342588;26;20412;-68
2024/04/20 04:22:10;;;;;;;9.77;3.22;;;3.20;99.90;;;;;;5342575;26;20029;-68
2024/04/20 04:24:37;;;;;;;4.57;2.42;;;3.20;99.90;;;;;;5343598;26;20009;-67
2024/04/20 04:27:22;;;;;;;6.60;2.67;;;3.30;99.90;;;;;;5349615;26;20041;-68
2024/04/20 04:29:54;;;;;;;5.70;2.78;;;3.30;99.90;;;;;;5342763;26;20005;-68
2024/04/20 04:32:21;;;;;;;4.30;2.95;;;3.20;99.90;;;;;;5340318;26;20040;-68
2024/04/20 04:34:53;;;;;;;7.07;2.75;;;3.20;99.90;;;;;;5343423;26;20025;-68
2024/04/20 04:37:20;;;;;;;3.92;2.53;;;3.20;99.90;;;;;;5344525;26;20033;-68
2024/04/20 04:39:47;;;;;;;5.55;2.50;;;3.30;99.90;;;;;;5338265;26;20019;-68
2024/04/20 04:42:14;;;;;;;5.50;2.58;;;3.30;99.90;;;;;;5341307;26;20009;-68
2024/04/20 04:44:41;;;;;;;5.22;2.20;;;3.30;99.90;;;;;;5344974;26;20032;-68
2024/04/20 04:47:08;;;;;;;5.15;2.58;;;3.30;99.90;;;;;;5344142;26;20015;-67
2024/04/20 04:49:35;;;;;;;6.65;2.80;;;3.30;99.90;;;;;;5342933;26;20078;-68
2024/04/20 04:52:02;;;;;;;5.32;2.50;;;3.30;99.90;;;;;;5343502;26;20005;-68
2024/04/20 04:54:28;;;;;;;3.80;2.30;;;3.30;99.90;;;;;;5344734;26;20005;-67
2024/04/20 04:56:55;;;;;;;3.83;2.22;;;3.30;99.90;;;;;;5344487;26;20027;-68
2024/04/20 04:59:22;;;;;;;5.85;2.30;;;3.30;99.90;;;;;;5344588;26;20008;-68
2024/04/20 05:01:51;;;;;;;3.97;2.55;;;3.40;99.90;;;;;;5344281;26;20009;-68
2024/04/20 05:04:19;;;;;;;5.55;2.83;;;3.40;99.90;;;;;;5327990;26;20078;-68
2024/04/20 05:06:46;;;;;;;3.40;1.90;;;3.40;99.90;;;;;;5341746;26;20041;-67
2024/04/20 05:09:13;;;;;;;6.88;2.28;;;3.40;99.90;;;;;;5342616;26;20079;-67
2024/04/20 05:11:40;;;;;;;5.25;2.35;;;3.30;99.90;;;;;;5335080;26;20048;-67
2024/04/20 05:14:07;;;;;;;3.35;2.05;;;3.30;99.90;;;;;;5340930;26;20486;-67
2024/04/20 05:16:34;;;;;;;7.53;2.33;;;3.30;99.90;;;;;;5341095;26;20017;-67
2024/04/20 05:19:01;;;;;;;3.80;2.50;;;3.30;99.90;;;;;;5311015;26;20016;-67
2024/04/20 05:21:28;;;;;;;4.63;2.30;;;3.40;99.90;;;;;;5343779;26;20017;-66
2024/04/20 05:23:55;;;;;;;3.33;2.00;;;3.40;99.90;;;;;;5342483;26;20017;-67
2024/04/20 05:26:28;;;;;;;4.25;2.15;;;3.40;99.90;;;;;;5342067;26;20005;-67
2024/04/20 05:28:55;;;;;;;8.00;2.50;;;3.40;99.90;;;;;;5341356;26;20074;-67
2024/04/20 05:31:22;;;;;;;5.05;2.20;;;3.40;99.90;;;;;;5343696;26;20009;-67
2024/04/20 05:33:48;;;;;;;8.07;3.08;;;3.40;99.90;;;;;;5335859;26;20041;-67
2024/04/20 05:36:15;;;;;;;4.30;2.28;;;3.40;99.90;;;;;;5342915;26;20454;-67
2024/04/20 05:38:46;;;;;;;3.70;2.30;;;3.40;99.90;;;;;;5340556;26;20049;-67
2024/04/20 05:41:13;;;;;;;3.28;2.28;;;3.40;99.90;;;;;;5337767;26;20060;-67
2024/04/20 05:43:40;;;;;;;4.85;2.67;;;3.40;99.90;;;;;;5343881;26;20013;-67
2024/04/20 05:46:06;;;;;;;4.50;2.50;;;3.40;99.90;;;;;;5343347;26;20024;-67
2024/04/20 05:48:34;;;;;;;3.28;2.00;;;3.40;99.90;;;;;;5343563;26;20009;-67
2024/04/20 05:51:02;;;;;;;8.95;3.13;;;3.40;99.90;;;;;;5342622;26;20607;-67
2024/04/20 05:53:34;;;;;;;4.35;2.55;;;3.40;99.90;;;;;;5311199;26;20499;-67
2024/04/20 05:56:03;;;;;;;8.65;4.35;;;3.40;99.90;;;;;;5341763;26;20079;-67
2024/04/20 05:58:30;;;;;;;6.70;4.47;;;3.40;99.90;;;;;;5343363;26;20009;-67
2024/04/20 06:00:57;;;;;;;10.88;5.28;;;3.50;99.90;;;;;;5343571;26;20020;-67
2024/04/20 06:03:24;;;;;;;7.10;2.70;;;3.40;99.90;;;;;;5341726;26;20005;-67
2024/04/20 06:05:56;;;;;;;4.07;2.90;;;3.50;99.90;;;;;;5342549;26;20005;-67
2024/04/20 06:08:29;;;;;;;6.32;3.55;;;3.50;99.90;;;;;;5368256;26;20048;-67
2024/04/20 06:10:57;;;;;;;5.55;2.20;;;3.50;99.90;;;;;;5332913;26;20001;-67
2024/04/20 06:13:24;;;;;;;6.90;2.65;;;3.50;99.90;;;;;;5342922;26;20037;-67
2024/04/20 06:15:51;;;;;;;4.45;2.58;;;3.50;99.90;;;;;;5337919;26;20020;-68
2024/04/20 06:18:18;;;;;;;6.80;2.78;;;3.60;99.90;;;;;;5342907;26;20012;-67
2024/04/20 06:20:45;;;;;;;4.97;2.45;;;3.60;99.90;;;;;;5334688;26;20346;-67
2024/04/20 06:23:12;;;;;;;3.72;2.78;;;3.60;99.90;;;;;;5342648;26;20041;-67
2024/04/20 06:25:44;;;;;;;5.90;2.75;;;3.70;99.90;;;;;;5336226;26;20473;-67
2024/04/20 06:28:11;;;;;;;3.90;2.50;;;3.70;99.90;;;;;;5342965;26;20023;-67
2024/04/20 06:30:45;;;;;;;5.22;2.90;;;3.70;99.90;;;;;;5337638;26;20045;-67
2024/04/20 06:33:13;;;;;;;4.18;2.95;;;3.70;99.90;;;;;;5341876;26;20020;-67
2024/04/20 06:35:40;;;;;;;5.38;2.90;;;3.80;99.90;;;;;;5340017;26;20011;-67
2024/04/20 06:38:07;;;;;;;5.03;2.83;;;3.90;99.90;;;;;;5340983;26;20005;-67
2024/04/20 06:40:36;;;;;;;6.25;3.15;;;3.90;99.90;;;;;;5342280;26;20005;-67
2024/04/20 06:43:04;;;;;;;8.63;3.10;;;3.90;99.90;;;;;;5338892;26;20353;-67
2024/04/20 06:45:30;;;;;;;6.45;2.60;;;4.00;99.90;;;;;;5337409;26;20045;-67
2024/04/20 06:48:02;;;;;;;8.48;3.53;;;3.90;99.90;;;;;;5341913;26;20382;-67
2024/04/20 06:50:37;;;;;;;5.72;3.10;;;3.90;99.90;;;;;;5314281;26;20009;-67
2024/04/20 06:53:04;;;;;;;5.90;3.28;;;4.00;99.90;;;;;;5345780;26;20001;-67
2024/04/20 06:55:31;;;;;;;7.18;3.22;;;4.00;99.90;;;;;;5339455;26;20009;-67
2024/04/20 06:57:58;;;;;;;6.75;3.33;;;4.00;99.90;;;;;;5347090;26;20016;-67
2024/04/20 07:00:25;;;;;;;6.53;2.50;;;4.00;99.90;;;;;;5344120;26;20020;-68
2024/04/20 07:02:52;;;;;;;4.13;3.08;;;4.20;99.90;;;;;;5344108;26;20046;-67
2024/04/20 07:05:19;;;;;;;86.30;11.70;;;4.30;99.90;;;;;;5343883;26;20087;-68
2024/04/20 07:07:46;;;;;;;9.20;2.85;;;4.40;99.90;;;;;;5344090;26;20000;-68
2024/04/20 07:10:13;;;;;;;9.02;3.40;;;4.40;99.90;;;;;;5345038;26;20020;-67
2024/04/20 07:12:40;;;;;;;3.47;2.33;;;4.40;99.90;;;;;;5338910;26;20114;-68
2024/04/20 07:15:12;;;;;;;232.57;31.13;;;4.50;99.90;;;;;;5362165;26;20020;-67
2024/04/20 07:17:40;;;;;;;5.65;2.20;;;4.50;99.90;;;;;;5342505;26;20020;-68
2024/04/20 07:20:07;;;;;;;8.60;2.58;;;4.50;99.90;;;;;;5344090;26;20005;-67
2024/04/20 07:22:34;;;;;;;4.45;2.65;;;4.50;99.90;;;;;;5342014;26;20005;-67
2024/04/20 07:25:01;;;;;;;15.25;3.60;;;4.60;99.90;;;;;;5342575;26;20013;-68
2024/04/20 07:27:28;;;;;;;3.72;1.92;;;4.60;99.90;;;;;;5338977;26;20041;-68
2024/04/20 07:29:55;;;;;;;5.55;2.05;;;4.60;99.90;;;;;;5342088;26;20595;-68
2024/04/20 07:32:22;;;;;;;38.85;5.30;;;4.70;99.90;;;;;;5344688;26;20013;-68
2024/04/20 07:34:48;;;;;;;8.13;1.42;;;4.70;99.90;;;;;;5342453;26;20060;-69
2024/04/20 07:37:15;;;;;;;2.08;1.30;;;4.70;99.90;;;;;;5345686;26;20087;-68
2024/04/20 07:39:42;;;;;;;4.07;1.60;;;4.70;99.90;;;;;;5343403;26;20012;-68
2024/04/20 07:42:09;;;;;;;13.32;2.40;;;4.60;99.90;;;;;;5343368;26;20350;-67
2024/04/20 07:44:42;;;;;;;4.40;1.88;;;4.60;99.90;;;;;;5345008;26;20012;-68
2024/04/20 07:47:10;;;;;;;2.72;1.80;;;4.60;99.90;;;;;;5346593;26;20012;-68
2024/04/20 07:49:37;;;;;;;4.40;2.10;;;4.60;99.90;;;;;;5343488;26;20392;-67
2024/04/20 07:52:04;;;;;;;4.15;2.13;;;4.60;99.90;;;;;;5341879;26;20361;-67
2024/04/20 07:54:31;;;;;;;4.47;1.90;;;4.70;99.90;;;;;;5340968;26;20001;-67
2024/04/20 07:56:58;;;;;;;3.05;2.33;;;4.80;99.90;;;;;;5341590;26;20029;-67
2024/04/20 07:59:25;;;;;;;2.50;1.75;;;4.90;99.90;;;;;;5343831;26;20009;-68
2024/04/20 08:01:52;;;;;;;2.50;2.25;;;5.00;99.90;;;;;;5340926;26;20005;-68
2024/04/20 08:04:19;;;;;;;8.15;2.47;;;5.00;99.90;;;;;;5313349;26;20008;-68
2024/04/20 08:06:46;;;;;;;4.82;2.40;;;5.00;99.90;;;;;;5339626;26;20006;-68
2024/04/20 08:09:13;;;;;;;6.13;2.40;;;5.10;99.90;;;;;;5341144;26;20005;-69
2024/04/20 08:11:40;;;;;;;4.43;2.25;;;5.10;99.90;;;;;;5337653;26;20056;-69
2024/04/20 08:14:07;;;;;;;2.80;1.58;;;5.30;99.90;;;;;;5338430;26;20424;-68
2024/04/20 08:16:34;;;;;;;2.92;1.40;;;5.40;99.90;;;;;;5338721;26;20037;-69
2024/04/20 08:19:03;;;;;;;2.80;1.52;;;5.50;99.90;;;;;;5336180;26;20316;-68
2024/04/20 08:21:30;;;;;;;4.22;1.85;;;5.50;99.90;;;;;;5346849;26;20019;-68
2024/04/20 08:23:57;;;;;;;8.50;1.70;;;5.60;99.90;;;;;;5332361;26;20004;-68
2024/04/20 08:26:31;;;;;;;7.30;1.70;;;5.70;99.90;;;;;;5331156;26;20020;-68
2024/04/20 08:29:03;;;;;;;4.82;1.55;;;5.70;99.90;;;;;;5332991;26;20006;-68
2024/04/20 08:31:30;;;;;;;4.80;1.77;;;5.80;99.90;;;;;;5329174;26;20226;-68
2024/04/20 08:33:57;;;;;;;6.75;3.15;;;5.90;99.90;;;;;;5333692;26;20045;-68
2024/04/20 08:36:24;;;;;;;2.80;1.30;;;5.90;99.90;;;;;;5336496;26;20010;-68
2024/04/20 08:38:51;;;;;;;2.13;1.15;;;5.90;99.90;;;;;;5334755;26;20013;-67
2024/04/20 08:41:24;;;;;;;3.67;1.20;;;5.80;99.90;;;;;;5333266;26;20681;-67
2024/04/20 08:43:52;;;;;;;1.95;0.95;;;5.70;99.90;;;;;;5331774;26;20812;-68
2024/04/20 08:46:20;;;;;;;6.07;1.23;;;5.70;99.90;;;;;;5329907;26;20021;-68
2024/04/20 08:48:49;;;;;;;2.78;1.33;;;5.80;99.90;;;;;;5338709;26;20005;-68
2024/04/20 08:51:20;;;;;;;3.65;1.40;;;5.90;99.90;;;;;;5338481;26;20037;-68
2024/04/20 08:53:49;;;;;;;2.70;1.42;;;6.00;99.90;;;;;;5337552;26;20087;-67
2024/04/20 08:56:18;;;;;;;20.40;3.15;;;6.10;99.90;;;;;;5337844;26;20028;-68
2024/04/20 08:58:45;;;;;;;3.30;1.50;;;6.10;99.90;;;;;;5337441;26;20392;-68
2024/04/20 09:01:16;;;;;;;27.75;3.53;;;6.20;99.90;;;;;;5339720;26;20041;-68
2024/04/20 09:03:48;;;;;;;2.95;1.50;;;6.40;99.90;;;;;;5365846;26;20021;-68
2024/04/20 09:06:15;;;;;;;1.90;1.15;;;6.40;99.90;;;;;;5338024;26;20357;-67
2024/04/20 09:08:48;;;;;;;1.60;1.10;;;6.30;99.90;;;;;;5339113;26;20041;-67
2024/04/20 09:11:16;;;;;;;2.03;1.05;;;6.30;99.90;;;;;;5340466;26;20001;-68
2024/04/20 09:13:43;;;;;;;12.30;1.60;;;6.40;99.90;;;;;;5338464;26;20082;-68
2024/04/20 09:16:15;;;;;;;5.43;1.40;;;6.50;99.90;;;;;;5335099;26;20345;-68
2024/04/20 09:18:42;;;;;;;3.85;1.13;;;6.60;99.90;;;;;;5340196;26;20005;-67
2024/04/20 09:21:09;;;;;;;2.13;1.15;;;6.50;99.90;;;;;;5342182;26;20017;-68
2024/04/20 09:23:38;;;;;;;1.85;1.17;;;6.50;99.90;;;;;;5309559;26;20005;-67
2024/04/20 09:26:13;;;;;;;2.38;1.00;;;6.40;99.90;;;;;;5339947;26;20016;-68
2024/04/20 09:28:40;;;;;;;2.40;1.35;;;6.40;99.90;;;;;;5342448;26;20001;-67
2024/04/20 09:31:10;;;;;;;1.05;0.77;;;6.30;99.90;;;;;;5340832;26;20004;-68
2024/04/20 09:33:37;;;;;;;2.78;1.27;;;6.40;99.90;;;;;;5313801;26;20052;-68
2024/04/20 09:36:07;;;;;;;2.10;1.00;;;6.60;99.90;;;;;;5338793;26;20086;-68
2024/04/20 09:38:34;;;;;;;13.52;2.05;;;6.70;99.90;;;;;;5338338;26;20424;-67
2024/04/20 09:41:02;;;;;;;5.40;1.90;;;6.90;99.90;;;;;;5337912;26;20094;-67
2024/04/20 09:43:30;;;;;;;2.88;1.25;;;6.90;99.90;;;;;;5339456;26;20020;-67
2024/04/20 09:45:59;;;;;;;1.88;0.80;;;6.80;99.90;;;;;;5339900;26;20005;-67
2024/04/20 09:48:31;;;;;;;1.70;0.95;;;7.00;99.90;;;;;;5330325;26;20017;-68
2024/04/20 09:51:22;;;;;;;3.30;1.00;;;7.00;99.90;;;;;;5341505;26;20358;-67
2024/04/20 09:53:56;;;;;;;1.70;1.25;;;6.90;99.90;;;;;;5339059;26;20008;-68
2024/04/20 09:56:24;;;;;;;2.88;1.98;;;6.90;99.90;;;;;;5340735;26;20469;-68
2024/04/20 09:58:52;;;;;;;2.03;0.70;;;6.90;99.90;;;;;;5337598;26;20357;-67
2024/04/20 10:01:20;;;;;;;1.95;1.10;;;7.00;99.90;;;;;;5339539;26;20020;-67
2024/04/20 10:03:53;;;;;;;3.15;1.10;;;7.00;99.90;;;;;;5339117;26;20127;-67
2024/04/20 10:06:21;;;;;;;2.42;1.10;;;7.00;99.90;;;;;;5338416;26;20020;-67
2024/04/20 10:08:49;;;;;;;2.78;0.95;;;7.10;99.90;;;;;;5338879;26;20009;-68
2024/04/20 10:11:17;;;;;;;2.30;1.50;;;7.00;99.90;;;;;;5337437;26;20625;-67
2024/04/20 10:13:44;;;;;;;1.98;1.35;;;6.80;99.90;;;;;;5341126;26;20016;-66
2024/04/20 10:16:12;;;;;;;2.75;1.00;;;6.70;99.90;;;;;;5318890;26;20453;-67
2024/04/20 10:18:39;;;;;;;2.72;0.90;;;6.60;99.90;;;;;;5339742;26;20009;-66
2024/04/20 10:21:13;;;;;;;4.55;1.95;;;6.60;99.90;;;;;;5306500;26;20001;-67
2024/04/20 10:23:42;;;;;;;;;;;6.60;99.90;;;;;;5366289;26;20013;-67
2024/04/20 10:26:09;;;;;;;5.72;2.28;;;6.70;99.90;;;;;;5344140;26;19933;-67
2024/04/20 10:28:36;;;;;;;5.07;2.50;;;6.90;99.90;;;;;;5343273;26;20009;-66
2024/04/20 10:31:03;;;;;;;6.07;3.00;;;6.90;99.90;;;;;;5342435;26;20013;-68
2024/04/20 10:33:35;;;;;;;3.75;1.90;;;6.70;99.90;;;;;;5339289;26;20016;-68
2024/04/20 10:36:06;;;;;;;4.50;2.47;;;6.60;99.90;;;;;;5339443;26;20012;-67
2024/04/20 10:38:33;;;;;;;3.58;1.88;;;6.40;99.90;;;;;;5340646;26;20012;-66
2024/04/20 10:41:11;;;;;;;2.22;1.77;;;6.30;99.90;;;;;;5341774;26;20078;-66
2024/04/20 10:43:38;;;;;;;4.88;1.80;;;6.30;99.90;;;;;;5340732;26;20489;-66
2024/04/20 10:46:05;;;;;;;4.45;2.38;;;6.30;99.90;;;;;;5335760;26;20013;-67
2024/04/20 10:48:32;;;;;;;8.77;4.55;;;6.40;99.90;;;;;;5343812;26;20004;-66
2024/04/20 10:51:00;;;;;;;4.63;2.90;;;6.60;99.90;;;;;;5346072;26;20048;-66
2024/04/20 10:53:32;;;;;;;2.38;1.58;;;6.90;99.90;;;;;;5345868;26;20015;-67
2024/04/20 10:56:00;;;;;;;6.45;1.80;;;7.10;99.90;;;;;;5346127;26;20083;-67
2024/04/20 10:58:27;;;;;;;4.07;1.90;;;7.20;99.90;;;;;;5315378;26;20011;-67
2024/04/20 11:01:01;;;;;;;3.15;1.67;;;7.10;99.90;;;;;;5338657;26;20010;-67
2024/04/20 11:03:28;;;;;;;2.67;1.20;;;7.20;99.90;;;;;;5344654;26;20032;-67
2024/04/20 11:05:57;;;;;;;3.00;0.93;;;7.10;99.90;;;;;;5339216;26;20057;-67
2024/04/20 11:08:25;;;;;;;3.25;1.25;;;7.10;99.90;;;;;;5344461;26;20456;-67
2024/04/20 11:10:52;;;;;;;2.08;1.20;;;7.10;99.90;;;;;;5344081;26;20012;-67
2024/04/20 11:13:19;;;;;;;1.83;1.20;;;7.10;99.90;;;;;;5339976;26;20008;-67
2024/04/20 11:15:47;;;;;;;3.08;1.10;;;7.10;99.90;;;;;;5345937;26;20361;-67
2024/04/20 11:18:14;;;;;;;2.70;1.30;;;7.00;99.90;;;;;;5344493;26;20001;-67
2024/04/20 11:20:41;;;;;;;1.30;0.95;;;7.10;99.90;;;;;;5344665;26;20021;-67
2024/04/20 11:23:15;;;;;;;1.55;1.20;;;7.30;99.90;;;;;;5339396;26;20040;-67
2024/04/20 11:25:52;;;;;;;2.75;1.30;;;7.30;99.90;;;;;;5345330;26;20005;-67
2024/04/20 11:28:23;;;;;;;1.52;1.20;;;7.30;99.90;;;;;;5346499;26;20016;-67
2024/04/20 11:30:51;;;;;;;1.80;1.30;;;7.30;99.90;;;;;;5343599;26;20001;-67
2024/04/20 11:33:18;;;;;;;1.35;1.10;;;7.30;99.90;;;;;;5350222;26;20483;-67
2024/04/20 11:35:49;;;;;;;1.45;1.00;;;7.30;99.90;;;;;;5343781;26;20009;-67
2024/04/20 11:38:16;;;;;;;2.17;1.05;;;7.20;99.90;;;;;;5338409;26;20007;-67
2024/04/20 11:40:50;;;;;;;1.98;1.30;;;7.20;99.90;;;;;;5340262;26;20494;-67
2024/04/20 11:43:22;;;;;;;1.58;1.10;;;7.10;99.90;;;;;;5344445;26;20009;-67
2024/04/20 11:45:56;;;;;;;2.08;1.30;;;7.30;99.90;;;;;;5345041;26;20546;-67
2024/04/20 11:48:30;;;;;;;3.10;0.98;;;7.30;99.90;;;;;;5345308;26;20016;-67
2024/04/20 11:51:04;;;;;;;3.13;1.38;;;7.30;99.90;;;;;;5342740;26;20067;-67
2024/04/20 11:56:18;;;;;;;4.88;1.77;;;7.60;99.90;;;;;;5341690;26;20675;-67
2024/04/20 11:58:52;;;;;;;3.60;1.25;;;7.80;99.90;;;;;;5337083;26;20013;-67
2024/04/20 12:01:19;;;;;;;2.70;1.33;;;7.80;99.90;;;;;;5336106;26;20021;-67
2024/04/20 12:03:47;;;;;;;4.38;1.83;;;8.00;99.90;;;;;;5338150;26;20005;-67
2024/04/20 12:06:14;;;;;;;2.30;1.10;;;8.00;99.90;;;;;;5338777;26;20010;-67
2024/04/20 12:08:41;;;;;;;1.80;1.10;;;8.20;99.90;;;;;;5343202;26;20042;-67
2024/04/20 12:11:08;;;;;;;1.60;1.20;;;8.40;99.90;;;;;;5339065;26;20082;-67
2024/04/20 12:13:41;;;;;;;10.02;2.67;;;8.60;99.90;;;;;;5340419;26;20369;-66
2024/04/20 12:16:10;;;;;;;5.25;1.90;;;8.50;99.90;;;;;;5338892;26;20001;-66
2024/04/20 12:18:45;;;;;;;3.08;1.25;;;8.30;99.90;;;;;;5342038;26;20394;-67
2024/04/20 12:21:13;;;;;;;2.78;1.45;;;7.90;99.90;;;;;;5338297;26;20019;-66
2024/04/20 12:23:40;;;;;;;2.75;1.30;;;7.70;99.90;;;;;;5343546;26;20042;-66
2024/04/20 12:26:08;;;;;;;4.25;1.50;;;7.70;99.90;;;;;;5340348;26;20001;-66
2024/04/20 12:28:36;;;;;;;3.20;1.30;;;7.70;99.90;;;;;;5339035;26;20479;-66
2024/04/20 12:31:04;;;;;;;3.95;1.38;;;7.60;99.90;;;;;;5341390;26;20021;-66
2024/04/20 12:33:32;;;;;;;2.15;1.10;;;7.50;99.90;;;;;;5338917;26;20083;-66
2024/04/20 12:35:59;;;;;;;2.35;1.00;;;7.40;99.90;;;;;;5343409;26;20442;-66
2024/04/20 12:38:26;;;;;;;1.33;0.98;;;7.30;99.90;;;;;;5341503;26;20015;-66
2024/04/20 12:40:54;;;;;;;1.35;1.02;;;7.20;99.90;;;;;;5340627;26;20004;-66
2024/04/20 12:43:21;;;;;;;1.27;0.70;;;7.10;99.90;;;;;;5340510;26;20013;-66
2024/04/20 12:45:48;;;;;;;2.42;1.20;;;7.20;99.90;;;;;;5337811;26;20041;-67
2024/04/20 12:48:15;;;;;;;2.38;1.00;;;7.30;99.90;;;;;;5342247;26;20013;-66
2024/04/20 12:50:42;;;;;;;1.75;0.90;;;7.50;99.90;;;;;;5339639;26;20457;-66
2024/04/20 12:53:09;;;;;;;2.25;1.38;;;7.70;99.90;;;;;;5337020;26;20012;-66
2024/04/20 12:55:36;;;;;;;1.95;1.05;;;7.90;99.90;;;;;;5339120;26;20005;-66
2024/04/20 12:58:03;;;;;;;3.10;1.10;;;8.10;99.90;;;;;;5339991;26;20024;-66
2024/04/20 13:00:30;;;;;;;3.15;1.13;;;8.30;99.90;;;;;;5335309;26;20061;-66
2024/04/20 13:03:02;;;;;;;3.47;2.08;;;8.60;99.90;;;;;;5335911;26;20020;-67
2024/04/20 13:05:34;;;;;;;6.43;3.30;;;8.70;99.90;;;;;;5336157;26;20037;-66